sensor_id;sensor_type;location;lat;lon;timestamp;P1;durP1;ratioP1;P2;durP2;ratioP2
12535;SDS011;6334;48.696;2.114;2023-07-16T00:01:47;10.60;;;4.47;;
12535;SDS011;6334;48.696;2.114;2023-07-16T00:04:18;8.20;;;4.47;;
12535;SDS011;6334;48.696;2.114;2023-07-16T00:06:48;11.70;;;4.57;;
12535;SDS011;6334;48.696;2.114;2023-07-16T00:09:19;8.93;;;4.60;;
12535;SDS011;6334;48.696;2.114;2023-07-16T00:11:49;9.97;;;4.57;;
12535;SDS011;6334;48.696;2.114;2023-07-16T00:14:20;11.97;;;4.33;;
12535;SDS011;6334;48.696;2.114;2023-07-16T00:16:50;8.87;;;4.50;;
12535;SDS011;6334;48.696;2.114;2023-07-16T00:19:21;9.23;;;4.27;;
12535;SDS011;6334;48.696;2.114;2023-07-16T00:21:51;6.90;;;4.03;;
12535;SDS011;6334;48.696;2.114;2023-07-16T00:24:22;9.03;;;4.50;;
12535;SDS011;6334;48.696;2.114;2023-07-16T00:26:52;6.90;;;4.43;;
12535;SDS011;6334;48.696;2.114;2023-07-16T00:29:24;10.50;;;4.73;;
12535;SDS011;6334;48.696;2.114;2023-07-16T00:31:54;9.83;;;5.03;;
12535;SDS011;6334;48.696;2.114;2023-07-16T00:34:25;7.23;;;4.53;;
12535;SDS011;6334;48.696;2.114;2023-07-16T00:36:55;7.33;;;4.50;;
12535;SDS011;6334;48.696;2.114;2023-07-16T00:39:26;7.27;;;4.03;;
12535;SDS011;6334;48.696;2.114;2023-07-16T00:41:56;9.33;;;4.37;;
12535;SDS011;6334;48.696;2.114;2023-07-16T00:44:27;7.60;;;4.30;;
12535;SDS011;6334;48.696;2.114;2023-07-16T00:46:57;6.33;;;4.30;;
12535;SDS011;6334;48.696;2.114;2023-07-16T00:49:28;8.67;;;4.53;;
12535;SDS011;6334;48.696;2.114;2023-07-16T00:51:58;13.13;;;5.00;;
12535;SDS011;6334;48.696;2.114;2023-07-16T00:54:31;7.83;;;4.37;;
12535;SDS011;6334;48.696;2.114;2023-07-16T00:57:01;7.87;;;4.30;;
12535;SDS011;6334;48.696;2.114;2023-07-16T00:59:32;7.50;;;4.37;;
12535;SDS011;6334;48.696;2.114;2023-07-16T01:02:02;10.30;;;4.60;;
12535;SDS011;6334;48.696;2.114;2023-07-16T01:04:33;8.13;;;4.27;;
12535;SDS011;6334;48.696;2.114;2023-07-16T01:07:04;9.20;;;4.57;;
12535;SDS011;6334;48.696;2.114;2023-07-16T01:09:34;9.17;;;5.00;;
12535;SDS011;6334;48.696;2.114;2023-07-16T01:12:04;8.60;;;4.40;;
12535;SDS011;6334;48.696;2.114;2023-07-16T01:14:35;10.70;;;4.83;;
12535;SDS011;6334;48.696;2.114;2023-07-16T01:17:05;8.00;;;4.90;;
12535;SDS011;6334;48.696;2.114;2023-07-16T01:19:35;9.10;;;4.50;;
12535;SDS011;6334;48.696;2.114;2023-07-16T01:30:28;10.50;;;5.03;;
12535;SDS011;6334;48.696;2.114;2023-07-16T01:32:58;7.43;;;4.47;;
12535;SDS011;6334;48.696;2.114;2023-07-16T01:35:29;9.73;;;5.17;;
12535;SDS011;6334;48.696;2.114;2023-07-16T01:37:59;7.47;;;4.63;;
12535;SDS011;6334;48.696;2.114;2023-07-16T01:40:30;8.97;;;4.93;;
12535;SDS011;6334;48.696;2.114;2023-07-16T01:43:00;8.30;;;4.37;;
12535;SDS011;6334;48.696;2.114;2023-07-16T01:45:31;10.13;;;4.77;;
12535;SDS011;6334;48.696;2.114;2023-07-16T01:48:22;11.27;;;4.83;;
12535;SDS011;6334;48.696;2.114;2023-07-16T01:51:04;12.13;;;4.40;;
12535;SDS011;6334;48.696;2.114;2023-07-16T01:53:34;10.10;;;4.63;;
12535;SDS011;6334;48.696;2.114;2023-07-16T01:56:04;12.30;;;5.10;;
12535;SDS011;6334;48.696;2.114;2023-07-16T01:58:35;7.70;;;5.07;;
12535;SDS011;6334;48.696;2.114;2023-07-16T02:01:05;7.90;;;4.63;;
12535;SDS011;6334;48.696;2.114;2023-07-16T02:03:36;7.87;;;4.50;;
12535;SDS011;6334;48.696;2.114;2023-07-16T02:06:06;9.13;;;4.60;;
12535;SDS011;6334;48.696;2.114;2023-07-16T02:08:37;7.93;;;4.70;;
12535;SDS011;6334;48.696;2.114;2023-07-16T02:11:07;8.03;;;4.30;;
12535;SDS011;6334;48.696;2.114;2023-07-16T02:13:38;6.73;;;3.93;;
12535;SDS011;6334;48.696;2.114;2023-07-16T02:16:08;6.53;;;4.17;;
12535;SDS011;6334;48.696;2.114;2023-07-16T02:18:39;7.63;;;4.30;;
12535;SDS011;6334;48.696;2.114;2023-07-16T02:21:09;10.03;;;4.53;;
12535;SDS011;6334;48.696;2.114;2023-07-16T02:23:41;8.90;;;5.07;;
12535;SDS011;6334;48.696;2.114;2023-07-16T02:26:11;9.40;;;4.30;;
12535;SDS011;6334;48.696;2.114;2023-07-16T02:28:42;6.53;;;4.37;;
12535;SDS011;6334;48.696;2.114;2023-07-16T02:31:12;9.70;;;4.87;;
12535;SDS011;6334;48.696;2.114;2023-07-16T02:33:42;7.87;;;4.30;;
12535;SDS011;6334;48.696;2.114;2023-07-16T02:36:13;9.67;;;4.80;;
12535;SDS011;6334;48.696;2.114;2023-07-16T02:38:43;7.77;;;4.40;;
12535;SDS011;6334;48.696;2.114;2023-07-16T02:41:14;13.40;;;4.80;;
12535;SDS011;6334;48.696;2.114;2023-07-16T02:43:45;7.60;;;4.37;;
12535;SDS011;6334;48.696;2.114;2023-07-16T02:46:15;9.33;;;4.80;;
12535;SDS011;6334;48.696;2.114;2023-07-16T02:48:45;7.63;;;4.63;;
12535;SDS011;6334;48.696;2.114;2023-07-16T02:51:16;8.30;;;4.30;;
12535;SDS011;6334;48.696;2.114;2023-07-16T02:53:46;9.87;;;4.73;;
12535;SDS011;6334;48.696;2.114;2023-07-16T02:56:17;9.00;;;4.63;;
12535;SDS011;6334;48.696;2.114;2023-07-16T02:58:47;11.93;;;4.60;;
12535;SDS011;6334;48.696;2.114;2023-07-16T03:01:17;11.60;;;4.73;;
12535;SDS011;6334;48.696;2.114;2023-07-16T03:03:48;10.13;;;4.73;;
12535;SDS011;6334;48.696;2.114;2023-07-16T03:06:18;8.90;;;4.63;;
12535;SDS011;6334;48.696;2.114;2023-07-16T03:08:49;9.77;;;4.77;;
12535;SDS011;6334;48.696;2.114;2023-07-16T03:11:19;8.70;;;4.33;;
12535;SDS011;6334;48.696;2.114;2023-07-16T03:13:50;8.50;;;4.60;;
12535;SDS011;6334;48.696;2.114;2023-07-16T03:16:20;10.57;;;5.03;;
12535;SDS011;6334;48.696;2.114;2023-07-16T03:18:51;14.60;;;5.40;;
12535;SDS011;6334;48.696;2.114;2023-07-16T03:21:21;8.80;;;4.80;;
12535;SDS011;6334;48.696;2.114;2023-07-16T03:23:52;7.50;;;4.33;;
12535;SDS011;6334;48.696;2.114;2023-07-16T03:26:22;9.80;;;4.63;;
12535;SDS011;6334;48.696;2.114;2023-07-16T03:28:52;9.20;;;4.40;;
12535;SDS011;6334;48.696;2.114;2023-07-16T03:31:24;8.80;;;4.67;;
12535;SDS011;6334;48.696;2.114;2023-07-16T03:33:54;9.60;;;4.97;;
12535;SDS011;6334;48.696;2.114;2023-07-16T03:36:25;8.37;;;4.90;;
12535;SDS011;6334;48.696;2.114;2023-07-16T03:38:55;9.23;;;4.83;;
12535;SDS011;6334;48.696;2.114;2023-07-16T03:41:26;8.70;;;4.67;;
12535;SDS011;6334;48.696;2.114;2023-07-16T03:43:56;6.17;;;3.87;;
12535;SDS011;6334;48.696;2.114;2023-07-16T03:46:27;10.30;;;5.10;;
12535;SDS011;6334;48.696;2.114;2023-07-16T03:48:57;7.27;;;4.60;;
12535;SDS011;6334;48.696;2.114;2023-07-16T03:51:28;8.30;;;4.70;;
12535;SDS011;6334;48.696;2.114;2023-07-16T03:53:58;9.93;;;4.93;;
12535;SDS011;6334;48.696;2.114;2023-07-16T03:56:28;8.40;;;4.57;;
12535;SDS011;6334;48.696;2.114;2023-07-16T03:58:59;9.50;;;4.13;;
12535;SDS011;6334;48.696;2.114;2023-07-16T04:01:29;8.80;;;4.80;;
12535;SDS011;6334;48.696;2.114;2023-07-16T04:04:00;10.77;;;4.67;;
12535;SDS011;6334;48.696;2.114;2023-07-16T04:06:30;8.63;;;4.40;;
12535;SDS011;6334;48.696;2.114;2023-07-16T04:09:01;8.27;;;4.73;;
12535;SDS011;6334;48.696;2.114;2023-07-16T04:11:31;8.80;;;4.60;;
12535;SDS011;6334;48.696;2.114;2023-07-16T04:14:02;8.40;;;4.53;;
12535;SDS011;6334;48.696;2.114;2023-07-16T04:16:32;9.93;;;4.60;;
12535;SDS011;6334;48.696;2.114;2023-07-16T04:19:02;7.67;;;4.40;;
12535;SDS011;6334;48.696;2.114;2023-07-16T04:21:33;8.03;;;4.43;;
12535;SDS011;6334;48.696;2.114;2023-07-16T04:24:03;9.70;;;4.77;;
12535;SDS011;6334;48.696;2.114;2023-07-16T04:26:34;9.67;;;4.63;;
12535;SDS011;6334;48.696;2.114;2023-07-16T04:29:04;9.33;;;4.30;;
12535;SDS011;6334;48.696;2.114;2023-07-16T04:31:35;8.13;;;4.53;;
12535;SDS011;6334;48.696;2.114;2023-07-16T04:34:05;10.70;;;5.03;;
12535;SDS011;6334;48.696;2.114;2023-07-16T04:36:36;8.63;;;4.33;;
12535;SDS011;6334;48.696;2.114;2023-07-16T04:39:05;7.47;;;4.27;;
12535;SDS011;6334;48.696;2.114;2023-07-16T04:41:36;5.87;;;3.97;;
12535;SDS011;6334;48.696;2.114;2023-07-16T04:44:06;8.60;;;4.73;;
12535;SDS011;6334;48.696;2.114;2023-07-16T04:46:37;6.27;;;4.10;;
12535;SDS011;6334;48.696;2.114;2023-07-16T04:49:07;9.23;;;4.67;;
12535;SDS011;6334;48.696;2.114;2023-07-16T04:51:38;10.03;;;4.13;;
12535;SDS011;6334;48.696;2.114;2023-07-16T04:54:08;7.80;;;4.63;;
12535;SDS011;6334;48.696;2.114;2023-07-16T04:56:39;9.03;;;4.80;;
12535;SDS011;6334;48.696;2.114;2023-07-16T04:59:09;11.90;;;4.93;;
12535;SDS011;6334;48.696;2.114;2023-07-16T05:01:39;10.87;;;4.93;;
12535;SDS011;6334;48.696;2.114;2023-07-16T05:04:10;9.00;;;4.50;;
12535;SDS011;6334;48.696;2.114;2023-07-16T05:06:40;9.60;;;4.90;;
12535;SDS011;6334;48.696;2.114;2023-07-16T05:09:11;9.67;;;5.10;;
12535;SDS011;6334;48.696;2.114;2023-07-16T05:11:41;10.40;;;5.10;;
12535;SDS011;6334;48.696;2.114;2023-07-16T05:14:12;10.37;;;4.80;;
12535;SDS011;6334;48.696;2.114;2023-07-16T05:16:42;6.57;;;4.17;;
12535;SDS011;6334;48.696;2.114;2023-07-16T05:19:13;11.20;;;5.17;;
12535;SDS011;6334;48.696;2.114;2023-07-16T05:21:43;11.10;;;5.17;;
12535;SDS011;6334;48.696;2.114;2023-07-16T05:24:14;9.80;;;5.00;;
12535;SDS011;6334;48.696;2.114;2023-07-16T05:26:44;11.83;;;5.10;;
12535;SDS011;6334;48.696;2.114;2023-07-16T05:29:15;11.37;;;4.93;;
12535;SDS011;6334;48.696;2.114;2023-07-16T05:31:45;10.37;;;5.13;;
12535;SDS011;6334;48.696;2.114;2023-07-16T05:34:16;11.17;;;4.97;;
12535;SDS011;6334;48.696;2.114;2023-07-16T05:36:46;11.90;;;5.50;;
12535;SDS011;6334;48.696;2.114;2023-07-16T05:39:16;9.93;;;4.97;;
12535;SDS011;6334;48.696;2.114;2023-07-16T05:41:47;8.60;;;5.17;;
12535;SDS011;6334;48.696;2.114;2023-07-16T05:44:17;12.23;;;5.00;;
12535;SDS011;6334;48.696;2.114;2023-07-16T05:46:48;13.20;;;5.00;;
12535;SDS011;6334;48.696;2.114;2023-07-16T05:49:18;10.33;;;5.40;;
12535;SDS011;6334;48.696;2.114;2023-07-16T05:51:49;12.37;;;5.40;;
12535;SDS011;6334;48.696;2.114;2023-07-16T05:54:19;10.47;;;5.40;;
12535;SDS011;6334;48.696;2.114;2023-07-16T05:56:50;12.87;;;5.53;;
12535;SDS011;6334;48.696;2.114;2023-07-16T05:59:20;12.03;;;5.20;;
12535;SDS011;6334;48.696;2.114;2023-07-16T06:01:51;10.03;;;5.27;;
12535;SDS011;6334;48.696;2.114;2023-07-16T06:04:21;12.47;;;6.10;;
12535;SDS011;6334;48.696;2.114;2023-07-16T06:06:51;11.17;;;5.40;;
12535;SDS011;6334;48.696;2.114;2023-07-16T06:09:22;12.70;;;6.30;;
12535;SDS011;6334;48.696;2.114;2023-07-16T06:11:52;11.30;;;5.63;;
12535;SDS011;6334;48.696;2.114;2023-07-16T06:14:23;10.07;;;5.47;;
12535;SDS011;6334;48.696;2.114;2023-07-16T06:16:53;12.10;;;6.00;;
12535;SDS011;6334;48.696;2.114;2023-07-16T06:19:24;15.83;;;5.93;;
12535;SDS011;6334;48.696;2.114;2023-07-16T06:21:54;9.87;;;5.20;;
12535;SDS011;6334;48.696;2.114;2023-07-16T06:24:25;12.33;;;6.17;;
12535;SDS011;6334;48.696;2.114;2023-07-16T06:26:55;15.50;;;5.97;;
12535;SDS011;6334;48.696;2.114;2023-07-16T06:29:26;10.53;;;5.60;;
12535;SDS011;6334;48.696;2.114;2023-07-16T06:31:56;8.10;;;4.87;;
12535;SDS011;6334;48.696;2.114;2023-07-16T06:34:26;12.87;;;5.80;;
12535;SDS011;6334;48.696;2.114;2023-07-16T06:36:57;9.20;;;5.43;;
12535;SDS011;6334;48.696;2.114;2023-07-16T06:39:27;14.10;;;5.63;;
12535;SDS011;6334;48.696;2.114;2023-07-16T06:41:58;11.87;;;5.40;;
12535;SDS011;6334;48.696;2.114;2023-07-16T06:44:28;15.90;;;6.40;;
12535;SDS011;6334;48.696;2.114;2023-07-16T06:46:59;10.80;;;5.13;;
12535;SDS011;6334;48.696;2.114;2023-07-16T06:49:29;11.73;;;5.30;;
12535;SDS011;6334;48.696;2.114;2023-07-16T06:52:02;12.00;;;5.60;;
12535;SDS011;6334;48.696;2.114;2023-07-16T06:54:33;12.07;;;5.37;;
12535;SDS011;6334;48.696;2.114;2023-07-16T06:57:03;11.40;;;5.80;;
12535;SDS011;6334;48.696;2.114;2023-07-16T06:59:34;15.70;;;5.63;;
12535;SDS011;6334;48.696;2.114;2023-07-16T07:02:05;8.67;;;5.07;;
12535;SDS011;6334;48.696;2.114;2023-07-16T07:04:36;14.07;;;6.20;;
12535;SDS011;6334;48.696;2.114;2023-07-16T07:07:06;15.73;;;5.73;;
12535;SDS011;6334;48.696;2.114;2023-07-16T07:09:37;13.37;;;5.47;;
12535;SDS011;6334;48.696;2.114;2023-07-16T07:12:07;11.37;;;5.43;;
12535;SDS011;6334;48.696;2.114;2023-07-16T07:14:38;10.97;;;5.47;;
12535;SDS011;6334;48.696;2.114;2023-07-16T07:17:08;11.67;;;5.23;;
12535;SDS011;6334;48.696;2.114;2023-07-16T07:19:39;11.47;;;5.20;;
12535;SDS011;6334;48.696;2.114;2023-07-16T07:22:09;11.37;;;5.30;;
12535;SDS011;6334;48.696;2.114;2023-07-16T07:24:39;10.70;;;5.50;;
12535;SDS011;6334;48.696;2.114;2023-07-16T07:27:10;15.37;;;5.97;;
12535;SDS011;6334;48.696;2.114;2023-07-16T07:29:40;11.10;;;5.93;;
12535;SDS011;6334;48.696;2.114;2023-07-16T07:32:11;10.23;;;5.17;;
12535;SDS011;6334;48.696;2.114;2023-07-16T07:34:41;13.73;;;5.53;;
12535;SDS011;6334;48.696;2.114;2023-07-16T07:37:12;11.40;;;6.20;;
12535;SDS011;6334;48.696;2.114;2023-07-16T07:39:42;15.73;;;5.77;;
12535;SDS011;6334;48.696;2.114;2023-07-16T07:42:13;11.33;;;6.07;;
12535;SDS011;6334;48.696;2.114;2023-07-16T07:44:43;11.37;;;5.60;;
12535;SDS011;6334;48.696;2.114;2023-07-16T07:47:14;12.70;;;5.97;;
12535;SDS011;6334;48.696;2.114;2023-07-16T07:49:44;13.20;;;5.77;;
12535;SDS011;6334;48.696;2.114;2023-07-16T07:52:14;12.20;;;5.37;;
12535;SDS011;6334;48.696;2.114;2023-07-16T07:54:45;12.60;;;6.13;;
12535;SDS011;6334;48.696;2.114;2023-07-16T07:57:15;12.73;;;5.60;;
12535;SDS011;6334;48.696;2.114;2023-07-16T07:59:46;12.50;;;5.53;;
12535;SDS011;6334;48.696;2.114;2023-07-16T08:02:16;12.20;;;5.87;;
12535;SDS011;6334;48.696;2.114;2023-07-16T08:04:47;11.20;;;5.77;;
12535;SDS011;6334;48.696;2.114;2023-07-16T08:07:17;12.27;;;6.13;;
12535;SDS011;6334;48.696;2.114;2023-07-16T08:09:48;11.33;;;5.17;;
12535;SDS011;6334;48.696;2.114;2023-07-16T08:12:18;14.87;;;5.17;;
12535;SDS011;6334;48.696;2.114;2023-07-16T08:14:49;12.77;;;5.37;;
12535;SDS011;6334;48.696;2.114;2023-07-16T08:17:19;11.43;;;5.20;;
12535;SDS011;6334;48.696;2.114;2023-07-16T08:19:50;11.73;;;5.90;;
12535;SDS011;6334;48.696;2.114;2023-07-16T08:22:21;10.97;;;4.83;;
12535;SDS011;6334;48.696;2.114;2023-07-16T08:24:51;12.63;;;5.10;;
12535;SDS011;6334;48.696;2.114;2023-07-16T08:27:21;11.97;;;5.60;;
12535;SDS011;6334;48.696;2.114;2023-07-16T08:29:51;12.73;;;5.40;;
12535;SDS011;6334;48.696;2.114;2023-07-16T08:32:22;9.60;;;5.27;;
12535;SDS011;6334;48.696;2.114;2023-07-16T08:34:52;11.03;;;5.20;;
12535;SDS011;6334;48.696;2.114;2023-07-16T08:37:23;12.50;;;4.97;;
12535;SDS011;6334;48.696;2.114;2023-07-16T08:39:53;11.73;;;4.70;;
12535;SDS011;6334;48.696;2.114;2023-07-16T08:42:24;9.17;;;4.60;;
12535;SDS011;6334;48.696;2.114;2023-07-16T08:44:54;9.47;;;4.57;;
12535;SDS011;6334;48.696;2.114;2023-07-16T08:47:24;10.23;;;4.47;;
12535;SDS011;6334;48.696;2.114;2023-07-16T08:49:55;12.67;;;4.90;;
12535;SDS011;6334;48.696;2.114;2023-07-16T08:52:26;10.87;;;5.20;;
12535;SDS011;6334;48.696;2.114;2023-07-16T08:54:56;12.30;;;4.57;;
12535;SDS011;6334;48.696;2.114;2023-07-16T08:57:26;12.13;;;5.00;;
12535;SDS011;6334;48.696;2.114;2023-07-16T08:59:57;12.40;;;5.33;;
12535;SDS011;6334;48.696;2.114;2023-07-16T09:02:27;12.27;;;4.93;;
12535;SDS011;6334;48.696;2.114;2023-07-16T09:04:58;13.00;;;5.37;;
12535;SDS011;6334;48.696;2.114;2023-07-16T09:07:28;9.00;;;4.63;;
12535;SDS011;6334;48.696;2.114;2023-07-16T09:09:59;10.93;;;5.10;;
12535;SDS011;6334;48.696;2.114;2023-07-16T09:12:30;11.90;;;4.90;;
12535;SDS011;6334;48.696;2.114;2023-07-16T09:15:01;11.77;;;5.27;;
12535;SDS011;6334;48.696;2.114;2023-07-16T09:17:31;10.33;;;5.00;;
12535;SDS011;6334;48.696;2.114;2023-07-16T09:20:02;15.63;;;6.33;;
12535;SDS011;6334;48.696;2.114;2023-07-16T09:22:35;8.23;;;4.20;;
12535;SDS011;6334;48.696;2.114;2023-07-16T09:25:05;12.53;;;5.17;;
12535;SDS011;6334;48.696;2.114;2023-07-16T09:27:36;10.90;;;4.80;;
12535;SDS011;6334;48.696;2.114;2023-07-16T09:30:06;10.63;;;4.93;;
12535;SDS011;6334;48.696;2.114;2023-07-16T09:32:38;9.30;;;5.17;;
12535;SDS011;6334;48.696;2.114;2023-07-16T09:35:11;11.20;;;5.27;;
12535;SDS011;6334;48.696;2.114;2023-07-16T09:37:41;12.87;;;5.20;;
12535;SDS011;6334;48.696;2.114;2023-07-16T09:40:11;8.63;;;4.67;;
12535;SDS011;6334;48.696;2.114;2023-07-16T09:42:42;11.43;;;4.97;;
12535;SDS011;6334;48.696;2.114;2023-07-16T09:45:19;8.83;;;4.83;;
12535;SDS011;6334;48.696;2.114;2023-07-16T09:47:49;12.90;;;5.27;;
12535;SDS011;6334;48.696;2.114;2023-07-16T09:50:20;11.97;;;4.90;;
12535;SDS011;6334;48.696;2.114;2023-07-16T09:52:50;10.57;;;5.13;;
12535;SDS011;6334;48.696;2.114;2023-07-16T09:55:21;12.63;;;4.90;;
12535;SDS011;6334;48.696;2.114;2023-07-16T09:57:52;8.23;;;4.50;;
12535;SDS011;6334;48.696;2.114;2023-07-16T10:00:22;11.83;;;5.00;;
12535;SDS011;6334;48.696;2.114;2023-07-16T10:02:54;10.97;;;4.97;;
12535;SDS011;6334;48.696;2.114;2023-07-16T10:05:25;10.83;;;4.83;;
12535;SDS011;6334;48.696;2.114;2023-07-16T10:07:58;10.90;;;5.40;;
12535;SDS011;6334;48.696;2.114;2023-07-16T10:10:43;9.40;;;4.70;;
12535;SDS011;6334;48.696;2.114;2023-07-16T10:13:13;8.97;;;4.37;;
12535;SDS011;6334;48.696;2.114;2023-07-16T10:15:58;7.97;;;4.50;;
12535;SDS011;6334;48.696;2.114;2023-07-16T10:18:28;12.00;;;4.90;;
12535;SDS011;6334;48.696;2.114;2023-07-16T10:21:04;9.17;;;4.27;;
12535;SDS011;6334;48.696;2.114;2023-07-16T10:23:40;7.63;;;4.40;;
12535;SDS011;6334;48.696;2.114;2023-07-16T10:26:14;9.27;;;4.30;;
12535;SDS011;6334;48.696;2.114;2023-07-16T10:28:41;9.73;;;4.27;;
12535;SDS011;6334;48.696;2.114;2023-07-16T10:31:23;10.47;;;4.47;;
12535;SDS011;6334;48.696;2.114;2023-07-16T10:34:04;8.77;;;4.30;;
12535;SDS011;6334;48.696;2.114;2023-07-16T10:36:38;9.60;;;4.20;;
12535;SDS011;6334;48.696;2.114;2023-07-16T10:39:08;10.07;;;4.60;;
12535;SDS011;6334;48.696;2.114;2023-07-16T10:41:38;7.80;;;4.13;;
12535;SDS011;6334;48.696;2.114;2023-07-16T10:44:09;9.67;;;4.43;;
12535;SDS011;6334;48.696;2.114;2023-07-16T10:46:41;10.47;;;4.47;;
12535;SDS011;6334;48.696;2.114;2023-07-16T10:49:10;7.30;;;4.70;;
12535;SDS011;6334;48.696;2.114;2023-07-16T10:51:40;8.50;;;4.20;;
12535;SDS011;6334;48.696;2.114;2023-07-16T10:54:11;7.67;;;4.00;;
12535;SDS011;6334;48.696;2.114;2023-07-16T10:56:41;9.27;;;4.20;;
12535;SDS011;6334;48.696;2.114;2023-07-16T10:59:12;8.83;;;4.53;;
12535;SDS011;6334;48.696;2.114;2023-07-16T11:01:42;7.40;;;4.50;;
12535;SDS011;6334;48.696;2.114;2023-07-16T11:04:12;8.47;;;4.40;;
12535;SDS011;6334;48.696;2.114;2023-07-16T11:06:43;10.37;;;4.77;;
12535;SDS011;6334;48.696;2.114;2023-07-16T11:09:13;10.20;;;4.27;;
12535;SDS011;6334;48.696;2.114;2023-07-16T11:11:44;8.97;;;4.40;;
12535;SDS011;6334;48.696;2.114;2023-07-16T11:14:14;8.77;;;4.73;;
12535;SDS011;6334;48.696;2.114;2023-07-16T11:16:45;7.60;;;4.70;;
12535;SDS011;6334;48.696;2.114;2023-07-16T11:19:19;7.30;;;4.10;;
12535;SDS011;6334;48.696;2.114;2023-07-16T11:21:46;8.83;;;4.30;;
12535;SDS011;6334;48.696;2.114;2023-07-16T11:24:16;8.00;;;4.77;;
12535;SDS011;6334;48.696;2.114;2023-07-16T11:26:50;8.67;;;5.07;;
12535;SDS011;6334;48.696;2.114;2023-07-16T11:29:20;7.67;;;4.67;;
12535;SDS011;6334;48.696;2.114;2023-07-16T11:31:51;8.40;;;4.70;;
12535;SDS011;6334;48.696;2.114;2023-07-16T11:34:20;8.40;;;4.77;;
12535;SDS011;6334;48.696;2.114;2023-07-16T11:36:51;7.10;;;4.60;;
12535;SDS011;6334;48.696;2.114;2023-07-16T11:39:23;8.27;;;4.67;;
12535;SDS011;6334;48.696;2.114;2023-07-16T11:41:55;8.53;;;4.80;;
12535;SDS011;6334;48.696;2.114;2023-07-16T11:44:25;7.80;;;5.00;;
12535;SDS011;6334;48.696;2.114;2023-07-16T11:46:58;8.20;;;4.93;;
12535;SDS011;6334;48.696;2.114;2023-07-16T11:49:26;9.27;;;4.97;;
12535;SDS011;6334;48.696;2.114;2023-07-16T11:51:57;9.93;;;5.10;;
12535;SDS011;6334;48.696;2.114;2023-07-16T11:54:27;7.10;;;4.67;;
12535;SDS011;6334;48.696;2.114;2023-07-16T11:56:58;9.47;;;4.83;;
12535;SDS011;6334;48.696;2.114;2023-07-16T11:59:28;8.97;;;5.20;;
12535;SDS011;6334;48.696;2.114;2023-07-16T12:01:59;7.47;;;5.00;;
12535;SDS011;6334;48.696;2.114;2023-07-16T12:04:29;8.40;;;4.73;;
12535;SDS011;6334;48.696;2.114;2023-07-16T12:06:59;7.43;;;4.67;;
12535;SDS011;6334;48.696;2.114;2023-07-16T12:09:30;7.90;;;4.83;;
12535;SDS011;6334;48.696;2.114;2023-07-16T12:12:01;9.43;;;4.77;;
12535;SDS011;6334;48.696;2.114;2023-07-16T12:14:31;7.57;;;4.70;;
12535;SDS011;6334;48.696;2.114;2023-07-16T12:17:01;7.53;;;4.93;;
12535;SDS011;6334;48.696;2.114;2023-07-16T12:19:32;11.07;;;5.10;;
12535;SDS011;6334;48.696;2.114;2023-07-16T12:22:02;11.13;;;5.13;;
12535;SDS011;6334;48.696;2.114;2023-07-16T12:24:33;9.10;;;5.00;;
12535;SDS011;6334;48.696;2.114;2023-07-16T12:27:03;6.60;;;4.90;;
12535;SDS011;6334;48.696;2.114;2023-07-16T12:29:34;9.27;;;4.80;;
12535;SDS011;6334;48.696;2.114;2023-07-16T12:32:04;8.17;;;5.03;;
12535;SDS011;6334;48.696;2.114;2023-07-16T12:34:35;10.73;;;4.93;;
12535;SDS011;6334;48.696;2.114;2023-07-16T12:37:05;6.40;;;4.87;;
12535;SDS011;6334;48.696;2.114;2023-07-16T12:39:35;8.47;;;4.90;;
12535;SDS011;6334;48.696;2.114;2023-07-16T12:42:06;10.20;;;5.20;;
12535;SDS011;6334;48.696;2.114;2023-07-16T12:44:36;13.53;;;5.37;;
12535;SDS011;6334;48.696;2.114;2023-07-16T12:47:07;8.37;;;4.73;;
12535;SDS011;6334;48.696;2.114;2023-07-16T12:49:37;17.00;;;4.90;;
12535;SDS011;6334;48.696;2.114;2023-07-16T12:52:09;6.90;;;4.23;;
12535;SDS011;6334;48.696;2.114;2023-07-16T12:54:40;7.13;;;4.40;;
12535;SDS011;6334;48.696;2.114;2023-07-16T12:57:10;9.57;;;5.40;;
12535;SDS011;6334;48.696;2.114;2023-07-16T12:59:41;8.90;;;4.67;;
12535;SDS011;6334;48.696;2.114;2023-07-16T13:02:11;7.23;;;4.73;;
12535;SDS011;6334;48.696;2.114;2023-07-16T13:04:42;9.93;;;4.83;;
12535;SDS011;6334;48.696;2.114;2023-07-16T13:07:12;6.20;;;4.53;;
12535;SDS011;6334;48.696;2.114;2023-07-16T13:09:42;7.57;;;4.70;;
12535;SDS011;6334;48.696;2.114;2023-07-16T13:12:13;9.23;;;5.17;;
12535;SDS011;6334;48.696;2.114;2023-07-16T13:14:43;6.93;;;4.37;;
12535;SDS011;6334;48.696;2.114;2023-07-16T13:17:14;8.33;;;4.40;;
12535;SDS011;6334;48.696;2.114;2023-07-16T13:19:44;10.03;;;4.90;;
12535;SDS011;6334;48.696;2.114;2023-07-16T13:22:15;7.87;;;4.80;;
12535;SDS011;6334;48.696;2.114;2023-07-16T13:24:45;7.50;;;4.60;;
12535;SDS011;6334;48.696;2.114;2023-07-16T13:27:22;8.67;;;5.30;;
12535;SDS011;6334;48.696;2.114;2023-07-16T13:29:52;9.50;;;5.40;;
12535;SDS011;6334;48.696;2.114;2023-07-16T13:32:22;9.80;;;5.60;;
12535;SDS011;6334;48.696;2.114;2023-07-16T13:34:53;9.80;;;5.10;;
12535;SDS011;6334;48.696;2.114;2023-07-16T13:37:23;8.67;;;4.87;;
12535;SDS011;6334;48.696;2.114;2023-07-16T13:39:54;6.83;;;4.80;;
12535;SDS011;6334;48.696;2.114;2023-07-16T13:42:24;9.77;;;4.77;;
12535;SDS011;6334;48.696;2.114;2023-07-16T13:44:54;11.40;;;4.97;;
12535;SDS011;6334;48.696;2.114;2023-07-16T13:47:25;10.97;;;4.83;;
12535;SDS011;6334;48.696;2.114;2023-07-16T13:49:55;5.53;;;4.57;;
12535;SDS011;6334;48.696;2.114;2023-07-16T13:52:26;10.07;;;4.67;;
12535;SDS011;6334;48.696;2.114;2023-07-16T13:54:56;6.77;;;4.43;;
12535;SDS011;6334;48.696;2.114;2023-07-16T13:57:28;8.40;;;4.43;;
12535;SDS011;6334;48.696;2.114;2023-07-16T13:59:59;8.07;;;4.60;;
12535;SDS011;6334;48.696;2.114;2023-07-16T14:02:29;7.83;;;4.50;;
12535;SDS011;6334;48.696;2.114;2023-07-16T14:04:59;7.70;;;4.50;;
12535;SDS011;6334;48.696;2.114;2023-07-16T14:07:30;8.97;;;4.73;;
12535;SDS011;6334;48.696;2.114;2023-07-16T14:10:00;8.97;;;4.47;;
12535;SDS011;6334;48.696;2.114;2023-07-16T14:12:31;8.07;;;4.30;;
12535;SDS011;6334;48.696;2.114;2023-07-16T14:15:01;5.80;;;4.23;;
12535;SDS011;6334;48.696;2.114;2023-07-16T14:17:32;6.77;;;4.27;;
12535;SDS011;6334;48.696;2.114;2023-07-16T14:20:03;9.70;;;4.87;;
12535;SDS011;6334;48.696;2.114;2023-07-16T14:22:33;8.17;;;4.60;;
12535;SDS011;6334;48.696;2.114;2023-07-16T14:25:03;8.50;;;4.67;;
12535;SDS011;6334;48.696;2.114;2023-07-16T14:27:34;6.17;;;4.37;;
12535;SDS011;6334;48.696;2.114;2023-07-16T14:30:04;8.07;;;4.47;;
12535;SDS011;6334;48.696;2.114;2023-07-16T14:32:35;6.17;;;4.40;;
12535;SDS011;6334;48.696;2.114;2023-07-16T14:35:05;11.70;;;4.80;;
12535;SDS011;6334;48.696;2.114;2023-07-16T14:37:36;10.00;;;4.93;;
12535;SDS011;6334;48.696;2.114;2023-07-16T14:40:06;9.50;;;4.80;;
12535;SDS011;6334;48.696;2.114;2023-07-16T14:42:37;6.97;;;4.57;;
12535;SDS011;6334;48.696;2.114;2023-07-16T14:45:07;7.07;;;4.53;;
12535;SDS011;6334;48.696;2.114;2023-07-16T14:47:38;5.60;;;4.13;;
12535;SDS011;6334;48.696;2.114;2023-07-16T14:50:08;10.00;;;4.70;;
12535;SDS011;6334;48.696;2.114;2023-07-16T14:52:39;9.37;;;4.43;;
12535;SDS011;6334;48.696;2.114;2023-07-16T14:55:10;5.70;;;4.17;;
12535;SDS011;6334;48.696;2.114;2023-07-16T14:57:40;6.17;;;4.50;;
12535;SDS011;6334;48.696;2.114;2023-07-16T15:00:10;7.87;;;4.40;;
12535;SDS011;6334;48.696;2.114;2023-07-16T15:02:41;7.70;;;4.63;;
12535;SDS011;6334;48.696;2.114;2023-07-16T15:05:11;7.60;;;4.33;;
12535;SDS011;6334;48.696;2.114;2023-07-16T15:07:42;7.50;;;4.37;;
12535;SDS011;6334;48.696;2.114;2023-07-16T15:10:12;7.90;;;4.27;;
12535;SDS011;6334;48.696;2.114;2023-07-16T15:12:43;8.03;;;4.53;;
12535;SDS011;6334;48.696;2.114;2023-07-16T15:15:13;8.03;;;4.63;;
12535;SDS011;6334;48.696;2.114;2023-07-16T15:17:44;9.20;;;4.30;;
12535;SDS011;6334;48.696;2.114;2023-07-16T15:20:14;6.53;;;4.13;;
12535;SDS011;6334;48.696;2.114;2023-07-16T15:22:45;8.33;;;4.30;;
12535;SDS011;6334;48.696;2.114;2023-07-16T15:25:15;7.43;;;3.77;;